Gray, Louisiana
Current Conditions -  °F | °C
As of 5:50 AM on Tuesday 27 Jan 2015 (Local Time) from KHUM Reporting Station
Haze Haze  
Wind Chill: 46°   Ceiling: Unl
Heat Index: 46°   Visibility: 6mi
Dew Point: 45°   Wind: 3mph
Humidity: 93%   Direction: 240°WSW
Pressure: 30.08"   Gusts: NA
Location:  29.68°N, 90.78°W
Report Text: KHUM 271150Z 24003KT 6SM BR SKC 08/07 A3008 RMK RY12/30 CLSD ATIS S VA RY18 RC
Loading
Personal Weather Stations






























Interactive Weather Map New forecast layout! Learn more

10-Day Weather Forecast

Advertisements
Track Severe Weather on mobile